sensor_id;sensor_type;location;lat;lon;timestamp;temperature;humidity
13928;DHT22;7036;50.834;4.718;2023-03-01T00:02:18;17.90;40.30
13928;DHT22;7036;50.834;4.718;2023-03-01T00:04:46;17.90;40.30
13928;DHT22;7036;50.834;4.718;2023-03-01T00:07:14;17.90;40.30
13928;DHT22;7036;50.834;4.718;2023-03-01T00:09:42;17.90;40.30
13928;DHT22;7036;50.834;4.718;2023-03-01T00:12:11;17.90;40.30
13928;DHT22;7036;50.834;4.718;2023-03-01T00:14:38;17.90;40.20
13928;DHT22;7036;50.834;4.718;2023-03-01T00:17:05;17.80;40.20
13928;DHT22;7036;50.834;4.718;2023-03-01T00:19:32;17.80;40.20
13928;DHT22;7036;50.834;4.718;2023-03-01T00:21:59;17.80;40.20
13928;DHT22;7036;50.834;4.718;2023-03-01T00:24:27;17.80;40.30
13928;DHT22;7036;50.834;4.718;2023-03-01T00:26:55;17.80;40.30
13928;DHT22;7036;50.834;4.718;2023-03-01T00:29:23;17.80;40.40
13928;DHT22;7036;50.834;4.718;2023-03-01T00:31:50;17.80;40.20
13928;DHT22;7036;50.834;4.718;2023-03-01T00:34:18;17.70;40.20
13928;DHT22;7036;50.834;4.718;2023-03-01T00:36:45;17.70;40.10
13928;DHT22;7036;50.834;4.718;2023-03-01T00:39:13;17.70;40.20
13928;DHT22;7036;50.834;4.718;2023-03-01T00:41:40;17.70;40.20
13928;DHT22;7036;50.834;4.718;2023-03-01T00:44:08;17.70;40.20
13928;DHT22;7036;50.834;4.718;2023-03-01T00:46:36;17.70;40.30
13928;DHT22;7036;50.834;4.718;2023-03-01T00:49:04;17.70;40.20
13928;DHT22;7036;50.834;4.718;2023-03-01T00:51:32;17.70;41.00
13928;DHT22;7036;50.834;4.718;2023-03-01T00:54:00;17.70;40.20
13928;DHT22;7036;50.834;4.718;2023-03-01T00:56:26;17.70;40.20
13928;DHT22;7036;50.834;4.718;2023-03-01T00:58:54;17.70;40.20
13928;DHT22;7036;50.834;4.718;2023-03-01T01:01:24;17.60;40.30
13928;DHT22;7036;50.834;4.718;2023-03-01T01:03:51;17.60;40.20
13928;DHT22;7036;50.834;4.718;2023-03-01T01:06:19;17.60;40.10
13928;DHT22;7036;50.834;4.718;2023-03-01T01:08:45;17.60;40.30
13928;DHT22;7036;50.834;4.718;2023-03-01T01:11:13;17.60;40.20
13928;DHT22;7036;50.834;4.718;2023-03-01T01:13:43;17.60;40.20
13928;DHT22;7036;50.834;4.718;2023-03-01T01:16:09;17.60;40.20
13928;DHT22;7036;50.834;4.718;2023-03-01T01:18:36;17.60;40.10
13928;DHT22;7036;50.834;4.718;2023-03-01T01:21:08;17.60;40.20
13928;DHT22;7036;50.834;4.718;2023-03-01T01:23:32;17.50;40.20
13928;DHT22;7036;50.834;4.718;2023-03-01T01:26:03;17.50;40.20
13928;DHT22;7036;50.834;4.718;2023-03-01T01:28:29;17.50;40.10
13928;DHT22;7036;50.834;4.718;2023-03-01T01:30:57;17.50;40.10
13928;DHT22;7036;50.834;4.718;2023-03-01T01:33:25;17.50;40.20
13928;DHT22;7036;50.834;4.718;2023-03-01T01:35:52;17.50;40.10
13928;DHT22;7036;50.834;4.718;2023-03-01T01:38:20;17.50;40.30
13928;DHT22;7036;50.834;4.718;2023-03-01T01:40:48;17.50;40.30
13928;DHT22;7036;50.834;4.718;2023-03-01T01:43:31;17.40;40.20
13928;DHT22;7036;50.834;4.718;2023-03-01T01:45:59;17.40;40.10
13928;DHT22;7036;50.834;4.718;2023-03-01T01:48:24;17.40;40.10
13928;DHT22;7036;50.834;4.718;2023-03-01T01:50:54;17.40;40.10
13928;DHT22;7036;50.834;4.718;2023-03-01T01:53:19;17.40;40.20
13928;DHT22;7036;50.834;4.718;2023-03-01T01:55:48;17.40;40.20
13928;DHT22;7036;50.834;4.718;2023-03-01T01:58:15;17.40;40.20
13928;DHT22;7036;50.834;4.718;2023-03-01T02:00:43;17.40;40.20
13928;DHT22;7036;50.834;4.718;2023-03-01T02:03:17;17.30;40.20
13928;DHT22;7036;50.834;4.718;2023-03-01T02:05:51;17.30;40.10
13928;DHT22;7036;50.834;4.718;2023-03-01T02:08:17;17.30;40.00
13928;DHT22;7036;50.834;4.718;2023-03-01T02:10:44;17.30;40.20
13928;DHT22;7036;50.834;4.718;2023-03-01T02:13:12;17.30;40.20
13928;DHT22;7036;50.834;4.718;2023-03-01T02:15:40;17.30;40.20
13928;DHT22;7036;50.834;4.718;2023-03-01T02:18:07;17.30;40.10
13928;DHT22;7036;50.834;4.718;2023-03-01T02:23:33;17.30;40.20
13928;DHT22;7036;50.834;4.718;2023-03-01T02:26:12;17.30;40.10
13928;DHT22;7036;50.834;4.718;2023-03-01T02:28:38;17.30;40.00
13928;DHT22;7036;50.834;4.718;2023-03-01T02:31:09;17.30;40.00
13928;DHT22;7036;50.834;4.718;2023-03-01T02:33:53;17.20;40.00
13928;DHT22;7036;50.834;4.718;2023-03-01T02:36:29;17.20;40.00
13928;DHT22;7036;50.834;4.718;2023-03-01T02:38:51;17.20;40.00
13928;DHT22;7036;50.834;4.718;2023-03-01T02:41:17;17.20;40.00
13928;DHT22;7036;50.834;4.718;2023-03-01T02:43:44;17.20;40.00
13928;DHT22;7036;50.834;4.718;2023-03-01T02:46:20;17.20;40.00
13928;DHT22;7036;50.834;4.718;2023-03-01T02:48:47;17.20;40.00
13928;DHT22;7036;50.834;4.718;2023-03-01T02:51:24;17.10;39.90
13928;DHT22;7036;50.834;4.718;2023-03-01T02:56:24;17.20;40.00
13928;DHT22;7036;50.834;4.718;2023-03-01T02:58:51;17.10;40.00
13928;DHT22;7036;50.834;4.718;2023-03-01T03:01:19;17.20;40.10
13928;DHT22;7036;50.834;4.718;2023-03-01T03:03:46;17.10;39.90
13928;DHT22;7036;50.834;4.718;2023-03-01T03:06:13;17.10;40.00
13928;DHT22;7036;50.834;4.718;2023-03-01T03:08:41;17.10;40.00
13928;DHT22;7036;50.834;4.718;2023-03-01T03:11:09;17.10;40.00
13928;DHT22;7036;50.834;4.718;2023-03-01T03:13:37;17.10;40.00
13928;DHT22;7036;50.834;4.718;2023-03-01T03:16:05;17.10;40.00
13928;DHT22;7036;50.834;4.718;2023-03-01T03:18:33;17.10;40.00
13928;DHT22;7036;50.834;4.718;2023-03-01T03:21:00;17.10;40.00
13928;DHT22;7036;50.834;4.718;2023-03-01T03:23:28;17.10;40.00
13928;DHT22;7036;50.834;4.718;2023-03-01T03:25:56;17.10;40.00
13928;DHT22;7036;50.834;4.718;2023-03-01T03:28:24;17.10;40.00
13928;DHT22;7036;50.834;4.718;2023-03-01T03:30:52;17.00;40.00
13928;DHT22;7036;50.834;4.718;2023-03-01T03:33:19;17.00;39.80
13928;DHT22;7036;50.834;4.718;2023-03-01T03:35:47;17.00;39.80
13928;DHT22;7036;50.834;4.718;2023-03-01T03:38:15;17.10;40.00
13928;DHT22;7036;50.834;4.718;2023-03-01T03:40:44;17.00;39.80
13928;DHT22;7036;50.834;4.718;2023-03-01T03:43:18;17.10;39.90
13928;DHT22;7036;50.834;4.718;2023-03-01T03:45:47;17.10;39.80
13928;DHT22;7036;50.834;4.718;2023-03-01T03:48:14;17.10;39.90
13928;DHT22;7036;50.834;4.718;2023-03-01T03:50:41;17.00;39.70
13928;DHT22;7036;50.834;4.718;2023-03-01T03:53:10;17.10;39.80
13928;DHT22;7036;50.834;4.718;2023-03-01T03:55:37;17.10;39.90
13928;DHT22;7036;50.834;4.718;2023-03-01T03:58:08;17.10;39.80
13928;DHT22;7036;50.834;4.718;2023-03-01T04:00:38;17.10;39.70
13928;DHT22;7036;50.834;4.718;2023-03-01T04:03:04;17.10;39.60
13928;DHT22;7036;50.834;4.718;2023-03-01T04:05:31;17.20;39.70
13928;DHT22;7036;50.834;4.718;2023-03-01T04:07:59;17.10;39.50
13928;DHT22;7036;50.834;4.718;2023-03-01T04:10:32;17.20;39.60
13928;DHT22;7036;50.834;4.718;2023-03-01T04:12:58;17.20;39.50
13928;DHT22;7036;50.834;4.718;2023-03-01T04:15:26;17.10;39.60
13928;DHT22;7036;50.834;4.718;2023-03-01T04:17:53;17.10;39.50
13928;DHT22;7036;50.834;4.718;2023-03-01T04:20:23;17.20;39.70
13928;DHT22;7036;50.834;4.718;2023-03-01T04:25:19;17.20;39.60
13928;DHT22;7036;50.834;4.718;2023-03-01T04:27:47;17.20;39.60
13928;DHT22;7036;50.834;4.718;2023-03-01T04:30:15;17.20;39.40
13928;DHT22;7036;50.834;4.718;2023-03-01T04:32:43;17.20;39.50
13928;DHT22;7036;50.834;4.718;2023-03-01T04:35:10;17.20;39.40
13928;DHT22;7036;50.834;4.718;2023-03-01T04:37:38;17.20;39.50
13928;DHT22;7036;50.834;4.718;2023-03-01T04:40:06;17.20;39.40
13928;DHT22;7036;50.834;4.718;2023-03-01T04:42:39;17.20;39.40
13928;DHT22;7036;50.834;4.718;2023-03-01T04:45:07;17.10;39.40
13928;DHT22;7036;50.834;4.718;2023-03-01T04:47:35;17.20;39.50
13928;DHT22;7036;50.834;4.718;2023-03-01T04:50:03;17.10;39.40
13928;DHT22;7036;50.834;4.718;2023-03-01T04:52:30;17.20;39.40
13928;DHT22;7036;50.834;4.718;2023-03-01T04:54:57;17.10;39.30
13928;DHT22;7036;50.834;4.718;2023-03-01T04:57:25;17.20;39.40
13928;DHT22;7036;50.834;4.718;2023-03-01T04:59:52;17.10;39.30
13928;DHT22;7036;50.834;4.718;2023-03-01T05:02:20;17.20;39.40
13928;DHT22;7036;50.834;4.718;2023-03-01T05:04:48;17.10;39.30
13928;DHT22;7036;50.834;4.718;2023-03-01T05:07:15;17.10;39.20
13928;DHT22;7036;50.834;4.718;2023-03-01T05:09:43;17.20;39.40
13928;DHT22;7036;50.834;4.718;2023-03-01T05:12:11;17.20;39.40
13928;DHT22;7036;50.834;4.718;2023-03-01T05:14:39;17.10;39.30
13928;DHT22;7036;50.834;4.718;2023-03-01T05:17:07;17.10;39.40
13928;DHT22;7036;50.834;4.718;2023-03-01T05:19:35;17.10;39.40
13928;DHT22;7036;50.834;4.718;2023-03-01T05:22:03;17.10;39.40
13928;DHT22;7036;50.834;4.718;2023-03-01T05:24:35;17.10;39.20
13928;DHT22;7036;50.834;4.718;2023-03-01T05:27:02;17.10;39.20
13928;DHT22;7036;50.834;4.718;2023-03-01T05:29:30;17.10;39.50
13928;DHT22;7036;50.834;4.718;2023-03-01T05:31:58;17.10;39.40
13928;DHT22;7036;50.834;4.718;2023-03-01T05:34:29;17.10;39.40
13928;DHT22;7036;50.834;4.718;2023-03-01T05:36:54;17.10;39.40
13928;DHT22;7036;50.834;4.718;2023-03-01T05:39:23;17.10;39.50
13928;DHT22;7036;50.834;4.718;2023-03-01T05:41:56;17.10;39.40
13928;DHT22;7036;50.834;4.718;2023-03-01T05:44:22;17.10;39.30
13928;DHT22;7036;50.834;4.718;2023-03-01T05:46:49;17.10;39.30
13928;DHT22;7036;50.834;4.718;2023-03-01T05:49:17;17.10;39.40
13928;DHT22;7036;50.834;4.718;2023-03-01T05:51:49;17.20;39.40
13928;DHT22;7036;50.834;4.718;2023-03-01T05:54:15;17.10;39.20
13928;DHT22;7036;50.834;4.718;2023-03-01T05:56:43;17.20;39.30
13928;DHT22;7036;50.834;4.718;2023-03-01T05:59:11;17.10;39.20
13928;DHT22;7036;50.834;4.718;2023-03-01T06:01:39;17.20;39.20
13928;DHT22;7036;50.834;4.718;2023-03-01T06:04:07;17.10;39.20
13928;DHT22;7036;50.834;4.718;2023-03-01T06:06:34;17.10;39.10
13928;DHT22;7036;50.834;4.718;2023-03-01T06:09:02;17.10;39.20
13928;DHT22;7036;50.834;4.718;2023-03-01T06:11:30;17.20;39.20
13928;DHT22;7036;50.834;4.718;2023-03-01T06:13:58;17.20;39.20
13928;DHT22;7036;50.834;4.718;2023-03-01T06:16:26;17.30;39.40
13928;DHT22;7036;50.834;4.718;2023-03-01T06:18:54;17.40;39.40
13928;DHT22;7036;50.834;4.718;2023-03-01T06:21:22;17.40;39.30
13928;DHT22;7036;50.834;4.718;2023-03-01T06:23:50;17.50;39.30
13928;DHT22;7036;50.834;4.718;2023-03-01T06:26:18;17.60;39.20
13928;DHT22;7036;50.834;4.718;2023-03-01T06:28:46;17.60;39.10
13928;DHT22;7036;50.834;4.718;2023-03-01T06:31:13;17.60;39.00
13928;DHT22;7036;50.834;4.718;2023-03-01T06:33:41;17.70;39.00
13928;DHT22;7036;50.834;4.718;2023-03-01T06:36:08;17.70;38.90
13928;DHT22;7036;50.834;4.718;2023-03-01T06:38:35;17.70;38.80
13928;DHT22;7036;50.834;4.718;2023-03-01T06:41:04;17.80;38.90
13928;DHT22;7036;50.834;4.718;2023-03-01T06:43:31;17.80;38.80
13928;DHT22;7036;50.834;4.718;2023-03-01T06:45:58;17.80;38.70
13928;DHT22;7036;50.834;4.718;2023-03-01T06:48:26;17.80;38.60
13928;DHT22;7036;50.834;4.718;2023-03-01T06:50:57;17.90;38.80
13928;DHT22;7036;50.834;4.718;2023-03-01T06:53:22;17.90;38.80
13928;DHT22;7036;50.834;4.718;2023-03-01T06:55:56;17.90;38.90
13928;DHT22;7036;50.834;4.718;2023-03-01T06:58:23;17.90;38.80
13928;DHT22;7036;50.834;4.718;2023-03-01T07:00:51;17.90;39.00
13928;DHT22;7036;50.834;4.718;2023-03-01T07:03:19;18.00;39.00
13928;DHT22;7036;50.834;4.718;2023-03-01T07:05:48;17.90;38.80
13928;DHT22;7036;50.834;4.718;2023-03-01T07:08:14;18.00;38.90
13928;DHT22;7036;50.834;4.718;2023-03-01T07:10:41;18.00;38.80
13928;DHT22;7036;50.834;4.718;2023-03-01T07:13:09;18.00;39.30
13928;DHT22;7036;50.834;4.718;2023-03-01T07:15:40;18.00;39.70
13928;DHT22;7036;50.834;4.718;2023-03-01T07:18:07;18.00;39.60
13928;DHT22;7036;50.834;4.718;2023-03-01T07:20:35;18.10;39.50
13928;DHT22;7036;50.834;4.718;2023-03-01T07:23:03;18.10;39.50
13928;DHT22;7036;50.834;4.718;2023-03-01T07:25:30;18.10;39.40
13928;DHT22;7036;50.834;4.718;2023-03-01T07:27:58;18.20;39.70
13928;DHT22;7036;50.834;4.718;2023-03-01T07:30:26;18.20;39.80
13928;DHT22;7036;50.834;4.718;2023-03-01T07:32:54;18.30;39.90
13928;DHT22;7036;50.834;4.718;2023-03-01T07:35:23;18.30;39.90
13928;DHT22;7036;50.834;4.718;2023-03-01T07:37:51;18.30;39.80
13928;DHT22;7036;50.834;4.718;2023-03-01T07:40:17;18.30;39.70
13928;DHT22;7036;50.834;4.718;2023-03-01T07:42:45;18.30;39.60
13928;DHT22;7036;50.834;4.718;2023-03-01T07:45:13;18.30;39.40
13928;DHT22;7036;50.834;4.718;2023-03-01T07:47:41;18.30;38.90
13928;DHT22;7036;50.834;4.718;2023-03-01T07:50:08;18.20;38.70
13928;DHT22;7036;50.834;4.718;2023-03-01T07:52:35;18.20;38.20
13928;DHT22;7036;50.834;4.718;2023-03-01T07:55:03;18.10;37.70
13928;DHT22;7036;50.834;4.718;2023-03-01T07:57:31;18.10;37.60
13928;DHT22;7036;50.834;4.718;2023-03-01T07:59:58;18.10;37.70
13928;DHT22;7036;50.834;4.718;2023-03-01T08:02:26;18.00;37.70
13928;DHT22;7036;50.834;4.718;2023-03-01T08:04:54;18.00;38.40
13928;DHT22;7036;50.834;4.718;2023-03-01T08:07:22;18.00;37.60
13928;DHT22;7036;50.834;4.718;2023-03-01T08:09:50;18.00;37.50
13928;DHT22;7036;50.834;4.718;2023-03-01T08:12:17;18.00;37.40
13928;DHT22;7036;50.834;4.718;2023-03-01T08:14:45;18.00;37.60
13928;DHT22;7036;50.834;4.718;2023-03-01T08:17:13;18.00;37.00
13928;DHT22;7036;50.834;4.718;2023-03-01T08:19:40;18.00;36.80
13928;DHT22;7036;50.834;4.718;2023-03-01T08:22:07;18.10;37.10
13928;DHT22;7036;50.834;4.718;2023-03-01T08:24:35;18.20;37.60
13928;DHT22;7036;50.834;4.718;2023-03-01T08:27:03;18.20;37.50
13928;DHT22;7036;50.834;4.718;2023-03-01T08:29:31;18.30;37.60
13928;DHT22;7036;50.834;4.718;2023-03-01T08:31:59;18.30;37.50
13928;DHT22;7036;50.834;4.718;2023-03-01T08:34:26;18.40;37.80
13928;DHT22;7036;50.834;4.718;2023-03-01T08:36:53;18.40;37.80
13928;DHT22;7036;50.834;4.718;2023-03-01T08:39:20;18.40;37.90
13928;DHT22;7036;50.834;4.718;2023-03-01T08:41:47;18.50;38.00
13928;DHT22;7036;50.834;4.718;2023-03-01T08:44:15;18.50;38.10
13928;DHT22;7036;50.834;4.718;2023-03-01T08:46:42;18.50;38.10
13928;DHT22;7036;50.834;4.718;2023-03-01T08:49:13;18.60;38.10
13928;DHT22;7036;50.834;4.718;2023-03-01T08:51:36;18.60;38.10
13928;DHT22;7036;50.834;4.718;2023-03-01T08:54:09;18.60;38.10
13928;DHT22;7036;50.834;4.718;2023-03-01T08:56:33;18.60;38.20
13928;DHT22;7036;50.834;4.718;2023-03-01T08:59:00;18.60;38.10
13928;DHT22;7036;50.834;4.718;2023-03-01T09:01:27;18.70;38.20
13928;DHT22;7036;50.834;4.718;2023-03-01T09:03:54;18.70;38.30
13928;DHT22;7036;50.834;4.718;2023-03-01T09:06:21;18.70;38.30
13928;DHT22;7036;50.834;4.718;2023-03-01T09:08:49;18.70;38.50
13928;DHT22;7036;50.834;4.718;2023-03-01T09:11:18;18.70;38.40
13928;DHT22;7036;50.834;4.718;2023-03-01T09:13:44;18.70;38.40
13928;DHT22;7036;50.834;4.718;2023-03-01T09:16:13;18.70;38.50
13928;DHT22;7036;50.834;4.718;2023-03-01T09:18:39;18.70;38.40
13928;DHT22;7036;50.834;4.718;2023-03-01T09:21:08;18.70;38.60
13928;DHT22;7036;50.834;4.718;2023-03-01T09:23:38;18.70;38.60
13928;DHT22;7036;50.834;4.718;2023-03-01T09:26:05;18.70;38.50
13928;DHT22;7036;50.834;4.718;2023-03-01T09:28:31;18.70;38.60
13928;DHT22;7036;50.834;4.718;2023-03-01T09:30:59;18.70;39.40
13928;DHT22;7036;50.834;4.718;2023-03-01T09:33:28;18.70;39.40
13928;DHT22;7036;50.834;4.718;2023-03-01T09:35:57;18.70;39.40
13928;DHT22;7036;50.834;4.718;2023-03-01T09:38:24;18.80;39.60
13928;DHT22;7036;50.834;4.718;2023-03-01T09:40:51;18.70;39.40
13928;DHT22;7036;50.834;4.718;2023-03-01T09:45:55;18.70;39.60
13928;DHT22;7036;50.834;4.718;2023-03-01T09:48:23;18.70;39.20
13928;DHT22;7036;50.834;4.718;2023-03-01T09:50:49;18.70;39.10
13928;DHT22;7036;50.834;4.718;2023-03-01T09:53:18;18.70;39.60
13928;DHT22;7036;50.834;4.718;2023-03-01T09:55:59;18.80;39.00
13928;DHT22;7036;50.834;4.718;2023-03-01T09:58:36;18.70;39.10
13928;DHT22;7036;50.834;4.718;2023-03-01T10:01:13;18.70;39.40
13928;DHT22;7036;50.834;4.718;2023-03-01T10:03:39;18.70;39.10
13928;DHT22;7036;50.834;4.718;2023-03-01T10:06:11;18.70;39.20
13928;DHT22;7036;50.834;4.718;2023-03-01T10:08:47;18.70;39.10
13928;DHT22;7036;50.834;4.718;2023-03-01T10:11:31;18.70;38.50
13928;DHT22;7036;50.834;4.718;2023-03-01T10:16:50;18.70;39.20
13928;DHT22;7036;50.834;4.718;2023-03-01T10:19:17;18.80;39.00
13928;DHT22;7036;50.834;4.718;2023-03-01T10:21:43;18.80;39.30
13928;DHT22;7036;50.834;4.718;2023-03-01T10:24:14;18.80;39.10
13928;DHT22;7036;50.834;4.718;2023-03-01T10:29:10;18.80;39.30
13928;DHT22;7036;50.834;4.718;2023-03-01T10:31:49;18.80;39.20
13928;DHT22;7036;50.834;4.718;2023-03-01T10:34:20;18.80;39.20
13928;DHT22;7036;50.834;4.718;2023-03-01T10:36:49;18.80;39.30
13928;DHT22;7036;50.834;4.718;2023-03-01T10:39:19;18.80;39.30
13928;DHT22;7036;50.834;4.718;2023-03-01T10:44:42;18.80;38.80
13928;DHT22;7036;50.834;4.718;2023-03-01T10:47:13;18.80;38.80
13928;DHT22;7036;50.834;4.718;2023-03-01T10:49:35;18.70;38.60
13928;DHT22;7036;50.834;4.718;2023-03-01T10:52:19;18.70;38.30
13928;DHT22;7036;50.834;4.718;2023-03-01T10:54:58;18.70;38.00
13928;DHT22;7036;50.834;4.718;2023-03-01T10:57:28;18.60;37.80
13928;DHT22;7036;50.834;4.718;2023-03-01T11:00:14;18.70;37.80
13928;DHT22;7036;50.834;4.718;2023-03-01T11:02:24;18.70;38.40
13928;DHT22;7036;50.834;4.718;2023-03-01T11:07:25;18.80;38.50
13928;DHT22;7036;50.834;4.718;2023-03-01T11:09:53;18.80;40.40
13928;DHT22;7036;50.834;4.718;2023-03-01T11:12:20;18.80;39.60
13928;DHT22;7036;50.834;4.718;2023-03-01T11:14:53;18.90;40.40
13928;DHT22;7036;50.834;4.718;2023-03-01T11:17:28;18.80;39.50
13928;DHT22;7036;50.834;4.718;2023-03-01T11:20:45;18.90;39.70
13928;DHT22;7036;50.834;4.718;2023-03-01T11:22:26;18.90;39.60
13928;DHT22;7036;50.834;4.718;2023-03-01T11:24:54;18.90;40.10
13928;DHT22;7036;50.834;4.718;2023-03-01T11:27:26;18.90;40.60
13928;DHT22;7036;50.834;4.718;2023-03-01T11:33:04;18.90;39.90
13928;DHT22;7036;50.834;4.718;2023-03-01T11:35:25;18.90;40.00
13928;DHT22;7036;50.834;4.718;2023-03-01T11:40:52;18.90;40.20
13928;DHT22;7036;50.834;4.718;2023-03-01T11:43:01;19.00;40.40
13928;DHT22;7036;50.834;4.718;2023-03-01T11:45:26;18.90;40.20
13928;DHT22;7036;50.834;4.718;2023-03-01T11:48:24;19.00;40.40
13928;DHT22;7036;50.834;4.718;2023-03-01T11:50:47;18.90;40.60
13928;DHT22;7036;50.834;4.718;2023-03-01T11:56:07;19.00;40.60
13928;DHT22;7036;50.834;4.718;2023-03-01T11:58:44;19.00;40.70
13928;DHT22;7036;50.834;4.718;2023-03-01T12:12:27;19.00;41.60
13928;DHT22;7036;50.834;4.718;2023-03-01T12:14:59;19.00;41.50
13928;DHT22;7036;50.834;4.718;2023-03-01T12:25:24;18.80;37.70
13928;DHT22;7036;50.834;4.718;2023-03-01T12:28:02;18.70;39.60
13928;DHT22;7036;50.834;4.718;2023-03-01T12:38:45;18.80;40.10
13928;DHT22;7036;50.834;4.718;2023-03-01T12:52:09;19.10;41.00
13928;DHT22;7036;50.834;4.718;2023-03-01T12:54:31;19.10;41.30
13928;DHT22;7036;50.834;4.718;2023-03-01T12:57:00;19.20;41.40
13928;DHT22;7036;50.834;4.718;2023-03-01T13:02:25;19.20;41.40
13928;DHT22;7036;50.834;4.718;2023-03-01T13:07:51;19.20;41.20
13928;DHT22;7036;50.834;4.718;2023-03-01T13:10:17;19.20;41.30
13928;DHT22;7036;50.834;4.718;2023-03-01T13:17:55;19.20;41.00
13928;DHT22;7036;50.834;4.718;2023-03-01T13:20:25;19.20;40.90
13928;DHT22;7036;50.834;4.718;2023-03-01T13:23:00;19.20;40.70
13928;DHT22;7036;50.834;4.718;2023-03-01T13:25:18;19.20;40.70
13928;DHT22;7036;50.834;4.718;2023-03-01T13:27:46;19.20;40.70
13928;DHT22;7036;50.834;4.718;2023-03-01T13:35:50;19.20;40.60
13928;DHT22;7036;50.834;4.718;2023-03-01T13:38:37;19.10;40.50
13928;DHT22;7036;50.834;4.718;2023-03-01T13:41:03;19.10;40.60
13928;DHT22;7036;50.834;4.718;2023-03-01T13:43:34;19.10;40.50
13928;DHT22;7036;50.834;4.718;2023-03-01T13:46:01;19.10;41.00
13928;DHT22;7036;50.834;4.718;2023-03-01T13:48:28;19.10;40.30
13928;DHT22;7036;50.834;4.718;2023-03-01T13:51:02;19.10;40.50
13928;DHT22;7036;50.834;4.718;2023-03-01T13:53:25;19.10;40.30
13928;DHT22;7036;50.834;4.718;2023-03-01T13:55:57;19.10;40.40
13928;DHT22;7036;50.834;4.718;2023-03-01T13:58:25;19.10;40.30
13928;DHT22;7036;50.834;4.718;2023-03-01T14:00:57;19.10;40.30
13928;DHT22;7036;50.834;4.718;2023-03-01T14:03:23;19.10;40.20
13928;DHT22;7036;50.834;4.718;2023-03-01T14:06:09;19.10;40.50
13928;DHT22;7036;50.834;4.718;2023-03-01T14:08:34;19.10;40.50
13928;DHT22;7036;50.834;4.718;2023-03-01T14:11:05;19.10;40.40
13928;DHT22;7036;50.834;4.718;2023-03-01T14:13:37;19.10;40.50
13928;DHT22;7036;50.834;4.718;2023-03-01T14:16:21;19.10;40.60
13928;DHT22;7036;50.834;4.718;2023-03-01T14:21:24;19.10;40.50
13928;DHT22;7036;50.834;4.718;2023-03-01T14:23:52;19.20;40.40
13928;DHT22;7036;50.834;4.718;2023-03-01T14:26:21;19.10;40.10
13928;DHT22;7036;50.834;4.718;2023-03-01T14:28:48;19.20;40.10
13928;DHT22;7036;50.834;4.718;2023-03-01T14:33:57;19.20;40.10
13928;DHT22;7036;50.834;4.718;2023-03-01T14:36:29;19.20;40.10
13928;DHT22;7036;50.834;4.718;2023-03-01T14:38:54;19.20;40.20
13928;DHT22;7036;50.834;4.718;2023-03-01T14:41:22;19.20;40.50
13928;DHT22;7036;50.834;4.718;2023-03-01T14:43:50;19.20;40.60
13928;DHT22;7036;50.834;4.718;2023-03-01T14:46:32;19.20;40.50
13928;DHT22;7036;50.834;4.718;2023-03-01T14:48:45;19.30;40.60
13928;DHT22;7036;50.834;4.718;2023-03-01T14:51:11;19.30;40.80
13928;DHT22;7036;50.834;4.718;2023-03-01T14:53:38;19.30;41.00
13928;DHT22;7036;50.834;4.718;2023-03-01T14:56:12;19.30;42.00
13928;DHT22;7036;50.834;4.718;2023-03-01T14:58:34;19.40;41.10
13928;DHT22;7036;50.834;4.718;2023-03-01T15:01:03;19.30;40.70
13928;DHT22;7036;50.834;4.718;2023-03-01T15:03:36;19.30;40.60
13928;DHT22;7036;50.834;4.718;2023-03-01T15:06:03;19.30;40.80
13928;DHT22;7036;50.834;4.718;2023-03-01T15:08:29;19.30;40.80
13928;DHT22;7036;50.834;4.718;2023-03-01T15:10:58;19.30;41.10
13928;DHT22;7036;50.834;4.718;2023-03-01T15:13:26;19.30;41.10
13928;DHT22;7036;50.834;4.718;2023-03-01T15:15:53;19.30;40.90
13928;DHT22;7036;50.834;4.718;2023-03-01T15:18:22;19.40;41.00
13928;DHT22;7036;50.834;4.718;2023-03-01T15:20:49;19.40;41.00
13928;DHT22;7036;50.834;4.718;2023-03-01T15:23:26;19.40;41.50
13928;DHT22;7036;50.834;4.718;2023-03-01T15:25:52;19.30;41.10
13928;DHT22;7036;50.834;4.718;2023-03-01T15:28:19;19.30;41.10
13928;DHT22;7036;50.834;4.718;2023-03-01T15:30:51;19.30;41.20
13928;DHT22;7036;50.834;4.718;2023-03-01T15:35:59;19.30;41.50
13928;DHT22;7036;50.834;4.718;2023-03-01T15:38:25;19.30;41.50
13928;DHT22;7036;50.834;4.718;2023-03-01T15:40:52;19.30;41.60
13928;DHT22;7036;50.834;4.718;2023-03-01T15:43:46;19.30;41.60
13928;DHT22;7036;50.834;4.718;2023-03-01T15:46:18;19.40;41.60
13928;DHT22;7036;50.834;4.718;2023-03-01T15:48:47;19.40;41.90
13928;DHT22;7036;50.834;4.718;2023-03-01T15:51:11;19.40;41.70
13928;DHT22;7036;50.834;4.718;2023-03-01T15:53:38;19.40;41.70
13928;DHT22;7036;50.834;4.718;2023-03-01T15:56:05;19.40;41.90
13928;DHT22;7036;50.834;4.718;2023-03-01T15:58:32;19.40;41.90
13928;DHT22;7036;50.834;4.718;2023-03-01T16:01:00;19.40;41.90
13928;DHT22;7036;50.834;4.718;2023-03-01T16:03:28;19.40;41.70
13928;DHT22;7036;50.834;4.718;2023-03-01T16:05:55;19.40;41.70
13928;DHT22;7036;50.834;4.718;2023-03-01T16:08:22;19.40;41.70
13928;DHT22;7036;50.834;4.718;2023-03-01T16:10:49;19.40;41.70
13928;DHT22;7036;50.834;4.718;2023-03-01T16:13:17;19.50;42.10
13928;DHT22;7036;50.834;4.718;2023-03-01T16:15:44;19.50;42.00
13928;DHT22;7036;50.834;4.718;2023-03-01T16:18:11;19.50;42.50
13928;DHT22;7036;50.834;4.718;2023-03-01T16:20:39;19.50;42.40
13928;DHT22;7036;50.834;4.718;2023-03-01T16:23:07;19.50;42.60
13928;DHT22;7036;50.834;4.718;2023-03-01T16:25:33;19.50;42.70
13928;DHT22;7036;50.834;4.718;2023-03-01T16:28:00;19.50;42.70
13928;DHT22;7036;50.834;4.718;2023-03-01T16:30:28;19.50;42.80
13928;DHT22;7036;50.834;4.718;2023-03-01T16:32:55;19.50;42.70
13928;DHT22;7036;50.834;4.718;2023-03-01T16:35:23;19.40;42.20
13928;DHT22;7036;50.834;4.718;2023-03-01T16:37:51;19.50;42.50
13928;DHT22;7036;50.834;4.718;2023-03-01T16:42:49;19.50;42.60
13928;DHT22;7036;50.834;4.718;2023-03-01T16:45:15;19.50;42.50
13928;DHT22;7036;50.834;4.718;2023-03-01T16:47:42;19.50;42.40
13928;DHT22;7036;50.834;4.718;2023-03-01T16:50:10;19.50;42.40
13928;DHT22;7036;50.834;4.718;2023-03-01T16:52:37;19.50;42.30
13928;DHT22;7036;50.834;4.718;2023-03-01T16:55:04;19.50;42.30
13928;DHT22;7036;50.834;4.718;2023-03-01T16:57:33;19.50;42.60
13928;DHT22;7036;50.834;4.718;2023-03-01T16:59:58;19.50;43.20
13928;DHT22;7036;50.834;4.718;2023-03-01T17:02:26;19.40;42.60
13928;DHT22;7036;50.834;4.718;2023-03-01T17:04:53;19.40;42.70
13928;DHT22;7036;50.834;4.718;2023-03-01T17:07:20;19.40;42.70
13928;DHT22;7036;50.834;4.718;2023-03-01T17:09:48;19.40;42.80
13928;DHT22;7036;50.834;4.718;2023-03-01T17:12:16;19.40;42.60
13928;DHT22;7036;50.834;4.718;2023-03-01T17:14:43;19.40;42.50
13928;DHT22;7036;50.834;4.718;2023-03-01T17:17:11;19.40;42.60
13928;DHT22;7036;50.834;4.718;2023-03-01T17:19:39;19.30;42.40
13928;DHT22;7036;50.834;4.718;2023-03-01T17:22:07;19.30;42.50
13928;DHT22;7036;50.834;4.718;2023-03-01T17:24:35;19.30;42.40
13928;DHT22;7036;50.834;4.718;2023-03-01T17:27:04;19.20;42.30
13928;DHT22;7036;50.834;4.718;2023-03-01T17:29:30;19.20;42.20